Domov               UVHVVR             MKGP            O straneh              
ZDRAVSTVENO VARSTVO RASTLIN
  MREŽA AGROMET. POSTAJ
 ► PROGNOSTIČNA OBVESTILA
AGROMETEOROLOŠKI PODATKI -
ARSO
OBVLADOVANJE TVEGANJ ZARADI
NEUGODNIH VREMENSKIH RAZMER
  ► NARAVNE NESREČE
  ► SUŠA/MOČA
  ► NAMAKANJE
  ► ŽLED (gozdarstvo)
KARTOGRAFSKI PRIKAZI
SPLETNE POVEZAVE
PROJEKTI IN PUBLIKACIJE

AGROMETEOROLOŠKA MREŽA: VREMENSKE POSTAJE IN FENOLOŠKA OPAZOVANJA

Pregled podatkov za lokacijo Pradisiol, meteorološka postaja 861649

Pregled senzorjev na lokaciji

ID Ime Zadnja
vrednost
Datum
zadnje
spremembe
Tip
senzorja
4074 Temperatura 2 m ( °C) 17,92 °C 17.10.2017 14:30 50YA
4075 Relativna vlaga 2 m (% RH) 88,35 % RH 17.10.2017 14:30 50YA
4076 Omočenost lista (U) 0 U 17.10.2017 14:30 A730WET
4077 Padavine 0.2 mm (mm) 0 mm 17.10.2017 14:30 Rain-O-Matic

Pregled podatkov zadnjih 24 ur

Zap.
št.
Datum in čas Pradisiol
Omočenost
lista
Padavine
0.2
mm
Relativna
vlaga
2
m
Temperatura
2
m
0 17.10.2017 13:30 0 0 88,35 17,92
1 17.10.2017 13:00 0 0 87,99 17,9
2 17.10.2017 12:30 0 0 87,38 17,96
3 17.10.2017 12:00 0 0 86,29 18,02
4 17.10.2017 11:30 0 0 83,61 18,72
5 17.10.2017 11:00 0 0 79,97 19,28
6 17.10.2017 10:30 0 0,2 76,34 19,44
7 17.10.2017 10:00 0 0 78,34 18,9
8 17.10.2017 09:30 0 0 88,49 17,34
9 17.10.2017 09:00 0 0 99,01 14,91
10 17.10.2017 08:30 0 0 99,91 12,01
11 17.10.2017 08:00 4 0 100 8,89
12 17.10.2017 07:30 10 0 100 6,77
13 17.10.2017 07:00 10 0 99,96 5,33
14 17.10.2017 06:30 10 0 99,9 5,27
15 17.10.2017 06:00 10 0 99,74 5,5
16 17.10.2017 05:30 10 0 99,73 5,75
17 17.10.2017 05:00 10 0 99,75 5,82
18 17.10.2017 04:30 10 0 99,53 5,89
19 17.10.2017 04:00 10 0 99,62 6,14
20 17.10.2017 03:30 10 0 99,46 6,03
21 17.10.2017 03:00 10 0 99,34 5,88
22 17.10.2017 02:30 10 0 99,27 5,94
23 17.10.2017 02:00 10 0 99,11 5,86
24 17.10.2017 01:30 10 0 98,86 5,7
25 17.10.2017 01:00 10 0 98,72 5,72
26 17.10.2017 00:30 10 0 98,47 5,79
27 17.10.2017 00:00 10 0 98,3 5,87
28 16.10.2017 23:30 10 0 98,04 6,14
29 16.10.2017 23:00 10 0 97,97 6,33
30 16.10.2017 22:30 10 0 97,54 6,38
31 16.10.2017 22:00 10 0 97,25 6,5
32 16.10.2017 21:30 10 0 96,82 6,78
33 16.10.2017 21:00 10 0 96,52 7,22
34 16.10.2017 20:30 10 0 95,92 7,71
35 16.10.2017 20:00 10 0 95,32 8,35
36 16.10.2017 19:30 10 0 94,66 9,18
37 16.10.2017 19:00 10 0 93,89 10,2
38 16.10.2017 18:30 10 0 92,33 11,47
39 16.10.2017 18:00 10 0 89,26 13,25
40 16.10.2017 17:30 3 0 84,39 15,55
41 16.10.2017 17:00 0 0 73,53 18,72
42 16.10.2017 16:30 0 0 61,53 20,29
43 16.10.2017 16:00 0 0 61,26 21,04
44 16.10.2017 15:30 0 0 66,37 20,76
45 16.10.2017 15:00 0 0 70,93 20,84
© 2011 Ministrstvo za kmetijstvo, gozdarstvo in prehrano. Vse pravice pridržane.